createdAt,value
2022-09-03T00:00:56.129Z,10.23
2022-09-03T00:03:44.870Z,10.20
2022-09-03T00:06:20.807Z,10.18
2022-09-03T00:09:04.763Z,10.14
2022-09-03T00:11:48.219Z,10.09
2022-09-03T00:14:23.550Z,9.92
2022-09-03T00:17:11.766Z,10.01
2022-09-03T00:20:00.636Z,10.01
2022-09-03T00:22:43.769Z,10.01
2022-09-03T00:25:18.618Z,10.00
2022-09-03T00:27:52.060Z,9.99
2022-09-03T00:30:20.746Z,9.97
2022-09-03T00:33:06.006Z,9.92
2022-09-03T00:35:45.084Z,9.88
2022-09-03T00:38:13.184Z,9.83
2022-09-03T00:41:07.038Z,9.78
2022-09-03T00:43:47.905Z,9.74
2022-09-03T00:46:36.802Z,9.69
2022-09-03T00:49:23.075Z,9.64
2022-09-03T00:52:13.734Z,9.59
2022-09-03T00:54:55.074Z,9.55
2022-09-03T00:58:11.258Z,9.50
2022-09-03T01:00:46.072Z,9.47
2022-09-03T01:03:35.013Z,9.44
2022-09-03T01:06:22.977Z,9.41
2022-09-03T01:09:09.717Z,9.37
2022-09-03T01:11:45.633Z,9.33
2022-09-03T01:14:58.649Z,9.29
2022-09-03T01:17:45.506Z,9.24
2022-09-03T01:20:50.442Z,9.21
2022-09-03T01:23:35.986Z,9.17
2022-09-03T01:26:43.544Z,9.13
2022-09-03T01:29:40.734Z,9.08
2022-09-03T01:32:26.111Z,9.04
2022-09-03T01:35:07.634Z,9.00
2022-09-03T01:37:57.762Z,8.98
2022-09-03T01:41:23.204Z,8.96
2022-09-03T01:44:08.207Z,8.93
2022-09-03T01:46:51.224Z,8.91
2022-09-03T01:49:23.157Z,8.88
2022-09-03T01:51:59.733Z,8.84
2022-09-03T01:55:02.309Z,8.81
2022-09-03T01:57:47.188Z,8.79
2022-09-03T02:00:20.771Z,8.76
2022-09-03T02:02:51.726Z,8.59
2022-09-03T02:05:26.173Z,8.70
2022-09-03T02:08:01.560Z,8.68
2022-09-03T02:10:32.790Z,8.65
2022-09-03T02:13:10.984Z,8.51
2022-09-03T02:15:43.770Z,8.60
2022-09-03T02:18:18.251Z,8.58
2022-09-03T02:20:48.352Z,8.55
2022-09-03T02:23:17.135Z,8.54
2022-09-03T02:25:50.531Z,8.52
2022-09-03T02:28:19.370Z,8.48
2022-09-03T02:30:48.485Z,8.46
2022-09-03T02:33:17.171Z,8.45
2022-09-03T02:35:46.510Z,8.44
2022-09-03T02:38:21.496Z,8.41
2022-09-03T02:40:49.619Z,8.39
2022-09-03T02:43:38.858Z,8.38
2022-09-03T02:46:14.213Z,8.35
2022-09-03T02:48:42.581Z,8.32
2022-09-03T02:51:14.180Z,8.31
2022-09-03T02:53:43.758Z,8.29
2022-09-03T02:56:11.904Z,8.27
2022-09-03T02:58:39.994Z,8.25
2022-09-03T03:01:08.739Z,8.25
2022-09-03T03:03:36.681Z,8.22
2022-09-03T03:06:07.112Z,8.19
2022-09-03T03:08:35.418Z,8.16
2022-09-03T03:11:03.442Z,8.13
2022-09-03T03:13:32.160Z,8.10
2022-09-03T03:16:02.999Z,8.08
2022-09-03T03:18:31.129Z,8.05
2022-09-03T03:21:08.118Z,8.01
2022-09-03T03:23:37.319Z,8.02
2022-09-03T03:26:08.105Z,8.00
2022-09-03T03:28:36.982Z,7.98
2022-09-03T03:31:10.698Z,7.95
2022-09-03T03:33:39.530Z,7.92
2022-09-03T03:36:10.470Z,7.88
2022-09-03T03:38:39.014Z,7.86
2022-09-03T03:41:12.682Z,7.85
2022-09-03T03:43:40.757Z,7.82
2022-09-03T03:46:08.862Z,7.79
2022-09-03T03:48:38.514Z,7.75
2022-09-03T03:51:09.263Z,7.74
2022-09-03T03:53:39.160Z,7.72
2022-09-03T03:56:10.219Z,7.70
2022-09-03T03:58:42.513Z,7.69
2022-09-03T04:01:16.071Z,7.67
2022-09-03T04:03:45.041Z,7.65
2022-09-03T04:06:15.796Z,7.64
2022-09-03T04:08:46.749Z,7.63
2022-09-03T04:11:18.938Z,7.61
2022-09-03T04:13:48.394Z,7.60
2022-09-03T04:16:25.265Z,7.59
2022-09-03T04:18:57.345Z,7.59
2022-09-03T04:21:30.508Z,7.50
2022-09-03T04:23:58.858Z,7.57
2022-09-03T04:26:32.211Z,7.58
2022-09-03T04:29:04.320Z,7.59
2022-09-03T04:31:33.851Z,7.60
2022-09-03T04:34:01.854Z,7.52
2022-09-03T04:36:31.336Z,7.60
2022-09-03T04:39:01.845Z,7.61
2022-09-03T04:41:31.824Z,7.62
2022-09-03T04:44:00.524Z,7.64
2022-09-03T04:46:33.629Z,7.67
2022-09-03T04:49:02.781Z,7.70
2022-09-03T04:51:32.186Z,7.74
2022-09-03T04:54:01.444Z,7.70
2022-09-03T04:56:31.986Z,7.84
2022-09-03T04:59:03.546Z,7.78
2022-09-03T05:01:33.677Z,7.98
2022-09-03T05:04:02.191Z,8.05
2022-09-03T05:06:31.602Z,8.09
2022-09-03T05:09:01.086Z,8.22
2022-09-03T05:11:29.850Z,8.30
2022-09-03T05:13:59.928Z,8.39
2022-09-03T05:16:30.990Z,8.47
2022-09-03T05:19:01.501Z,8.57
2022-09-03T05:21:30.860Z,8.66
2022-09-03T05:24:00.358Z,8.76
2022-09-03T05:26:30.824Z,8.86
2022-09-03T05:29:01.782Z,8.87
2022-09-03T05:31:32.300Z,9.06
2022-09-03T05:34:03.810Z,9.17
2022-09-03T05:36:37.312Z,9.29
2022-09-03T05:39:06.558Z,9.43
2022-09-03T05:41:34.915Z,9.55
2022-09-03T05:44:04.285Z,9.69
2022-09-03T05:46:34.670Z,9.82
2022-09-03T05:49:07.237Z,9.95
2022-09-03T05:51:36.813Z,10.09
2022-09-03T05:54:05.873Z,10.25
2022-09-03T05:56:37.017Z,10.39
2022-09-03T05:59:09.600Z,10.56
2022-09-03T06:01:51.557Z,10.72
2022-09-03T06:04:21.390Z,10.88
2022-09-03T06:06:49.384Z,11.06
2022-09-03T06:09:20.417Z,11.23
2022-09-03T06:11:50.141Z,11.40
2022-09-03T06:14:18.714Z,11.56
2022-09-03T06:16:53.362Z,11.74
2022-09-03T06:19:22.048Z,11.92
2022-09-03T06:21:49.886Z,11.98
2022-09-03T06:24:26.486Z,12.25
2022-09-03T06:26:57.205Z,12.42
2022-09-03T06:29:26.001Z,12.57
2022-09-03T06:31:54.015Z,12.72
2022-09-03T06:34:23.346Z,12.85
2022-09-03T06:36:51.806Z,12.98
2022-09-03T06:39:22.984Z,13.13
2022-09-03T06:41:52.100Z,13.28
2022-09-03T06:44:25.702Z,13.42
2022-09-03T06:46:53.661Z,13.57
2022-09-03T06:49:21.611Z,13.71
2022-09-03T06:51:49.948Z,13.86
2022-09-03T06:54:18.179Z,13.99
2022-09-03T06:56:46.068Z,14.06
2022-09-03T06:59:15.544Z,14.28
2022-09-03T07:01:46.253Z,14.43
2022-09-03T07:04:19.137Z,14.57
2022-09-03T07:06:47.463Z,14.71
2022-09-03T07:09:18.373Z,14.85
2022-09-03T07:11:48.320Z,15.00
2022-09-03T07:14:18.869Z,15.16
2022-09-03T07:16:48.767Z,15.30
2022-09-03T07:19:17.084Z,15.45
2022-09-03T07:21:50.221Z,15.59
2022-09-03T07:24:20.029Z,15.74
2022-09-03T07:26:49.467Z,15.89
2022-09-03T07:29:21.302Z,16.03
2022-09-03T07:31:52.136Z,16.12
2022-09-03T07:34:25.508Z,16.27
2022-09-03T07:36:54.344Z,16.38
2022-09-03T07:39:22.381Z,16.52
2022-09-03T07:41:50.971Z,16.65
2022-09-03T07:44:20.044Z,16.77
2022-09-03T07:46:51.403Z,16.92
2022-09-03T07:49:22.241Z,17.08
2022-09-03T07:51:52.487Z,17.23
2022-09-03T07:54:42.317Z,17.37
2022-09-03T07:57:10.404Z,17.53
2022-09-03T07:59:38.228Z,17.68
2022-09-03T08:02:06.522Z,17.79
2022-09-03T08:04:36.161Z,17.94
2022-09-03T08:07:05.504Z,18.07
2022-09-03T08:09:33.645Z,18.20
2022-09-03T08:12:02.621Z,18.34
2022-09-03T08:14:31.818Z,18.49
2022-09-03T08:17:00.440Z,18.62
2022-09-03T08:19:28.893Z,18.75
2022-09-03T08:21:56.759Z,18.88
2022-09-03T08:24:26.526Z,19.02
2022-09-03T08:26:54.699Z,19.17
2022-09-03T08:29:22.938Z,19.32
2022-09-03T08:31:51.028Z,19.45
2022-09-03T08:34:19.997Z,19.55
2022-09-03T08:36:48.012Z,19.61
2022-09-03T08:39:17.025Z,19.71
2022-09-03T08:41:51.427Z,19.82
2022-09-03T08:44:22.341Z,19.89
2022-09-03T08:47:09.729Z,19.97
2022-09-03T08:49:52.606Z,20.08
2022-09-03T08:52:42.337Z,20.12
2022-09-03T08:55:22.667Z,20.30
2022-09-03T08:57:57.214Z,20.39
2022-09-03T09:00:29.032Z,20.47
2022-09-03T09:03:15.394Z,20.45
2022-09-03T09:06:01.338Z,20.50
2022-09-03T09:08:43.544Z,20.67
2022-09-03T09:11:39.264Z,20.76
2022-09-03T09:14:15.254Z,20.88
2022-09-03T09:16:46.252Z,20.99
2022-09-03T09:19:39.020Z,21.06
2022-09-03T09:22:15.185Z,21.14
2022-09-03T09:24:47.363Z,21.11
2022-09-03T09:27:19.775Z,21.25
2022-09-03T09:29:50.124Z,21.30
2022-09-03T09:32:21.667Z,21.37
2022-09-03T09:34:52.728Z,21.47
2022-09-03T09:37:22.522Z,21.52
2022-09-03T09:39:57.132Z,21.54
2022-09-03T09:42:26.020Z,21.55
2022-09-03T09:45:27.301Z,21.55
2022-09-03T09:47:57.748Z,21.55
2022-09-03T09:50:57.482Z,21.54
2022-09-03T09:53:28.342Z,21.69
2022-09-03T09:56:00.063Z,21.72
2022-09-03T09:58:31.262Z,21.73
2022-09-03T10:01:31.934Z,21.71
2022-09-03T10:04:08.539Z,21.69
2022-09-03T10:06:57.148Z,21.66
2022-09-03T10:09:37.423Z,21.64
2022-09-03T10:19:23.812Z,21.67
2022-09-03T10:22:07.849Z,21.66
2022-09-03T10:28:02.192Z,21.73
2022-09-03T10:30:47.814Z,21.75
2022-09-03T10:33:26.613Z,21.78
2022-09-03T10:36:18.947Z,21.81
2022-09-03T10:39:04.936Z,21.85
2022-09-03T10:42:13.328Z,21.89
2022-09-03T10:45:05.574Z,21.92
2022-09-03T10:47:45.624Z,21.93
2022-09-03T10:50:27.792Z,21.92
2022-09-03T10:52:55.808Z,21.69
2022-09-03T10:55:47.373Z,21.92
2022-09-03T10:58:38.301Z,21.92
2022-09-03T11:01:27.320Z,21.89
2022-09-03T11:04:15.356Z,21.85
2022-09-03T11:07:03.508Z,21.84
2022-09-03T11:10:20.917Z,21.83
2022-09-03T11:13:04.378Z,21.80
2022-09-03T11:15:41.187Z,21.76
2022-09-03T11:18:12.128Z,21.74
2022-09-03T11:20:42.492Z,21.76
2022-09-03T11:23:13.600Z,21.76
2022-09-03T11:25:49.999Z,21.72
2022-09-03T11:28:24.231Z,21.71
2022-09-03T11:31:28.230Z,21.69
2022-09-03T11:34:05.554Z,21.67
2022-09-03T11:36:36.885Z,21.65
2022-09-03T11:39:31.901Z,21.61
2022-09-03T11:42:12.718Z,21.59
2022-09-03T11:44:51.667Z,21.55
2022-09-03T11:47:20.236Z,21.53
2022-09-03T11:49:51.604Z,21.54
2022-09-03T11:52:32.728Z,21.54
2022-09-03T11:55:00.689Z,21.54
2022-09-03T11:57:33.803Z,21.55
2022-09-03T12:00:18.201Z,21.53
2022-09-03T12:02:58.752Z,21.57
2022-09-03T12:05:54.794Z,21.60
2022-09-03T12:08:45.863Z,21.63
2022-09-03T12:11:23.775Z,21.61
2022-09-03T12:14:19.514Z,21.60
2022-09-03T12:16:53.337Z,21.59
2022-09-03T12:19:36.440Z,21.59
2022-09-03T12:22:05.634Z,21.60
2022-09-03T12:24:38.433Z,21.58
2022-09-03T12:27:10.153Z,21.58
2022-09-03T12:29:40.946Z,21.50
2022-09-03T12:32:13.659Z,21.58
2022-09-03T12:34:41.766Z,21.60
2022-09-03T12:40:27.994Z,21.65
2022-09-03T12:46:17.787Z,21.70
2022-09-03T12:52:05.576Z,21.71
2022-09-03T12:54:39.623Z,21.73
2022-09-03T12:57:09.447Z,21.73
2022-09-03T12:59:39.901Z,21.78
2022-09-03T13:02:33.651Z,21.80
2022-09-03T13:05:02.479Z,21.80
2022-09-03T13:07:37.478Z,21.81
2022-09-03T13:10:17.183Z,21.84
2022-09-03T13:12:53.374Z,21.88
2022-09-03T13:15:24.171Z,21.89
2022-09-03T13:18:23.797Z,21.92
2022-09-03T13:21:15.399Z,21.94
2022-09-03T13:24:20.272Z,21.89
2022-09-03T13:27:19.509Z,21.98
2022-09-03T13:30:17.658Z,21.98
2022-09-03T13:32:58.208Z,22.01
2022-09-03T13:35:40.360Z,22.02
2022-09-03T13:38:37.499Z,22.03
2022-09-03T13:41:20.690Z,22.01
2022-09-03T13:44:00.102Z,21.99
2022-09-03T13:46:41.403Z,21.96
2022-09-03T13:49:56.119Z,21.95
2022-09-03T13:53:02.215Z,21.94
2022-09-03T13:55:38.642Z,21.93
2022-09-03T13:58:19.997Z,21.90
2022-09-03T14:01:05.024Z,21.89
2022-09-03T14:03:51.079Z,21.89
2022-09-03T14:06:42.620Z,21.89
2022-09-03T14:09:31.234Z,21.88
2022-09-03T14:12:24.035Z,21.90
2022-09-03T14:14:59.773Z,21.92
2022-09-03T14:21:39.435Z,22.01
2022-09-03T14:24:14.651Z,22.09
2022-09-03T14:27:02.533Z,22.15
2022-09-03T14:29:35.749Z,22.22
2022-09-03T14:32:04.270Z,22.30
2022-09-03T14:35:00.436Z,22.37
2022-09-03T14:38:12.771Z,22.43
2022-09-03T14:40:46.386Z,22.43
2022-09-03T14:43:46.893Z,22.50
2022-09-03T14:46:23.393Z,22.53
2022-09-03T14:49:09.964Z,22.54
2022-09-03T14:52:17.030Z,22.56
2022-09-03T14:55:19.469Z,22.58
2022-09-03T14:58:05.986Z,22.61
2022-09-03T15:00:42.620Z,22.64
2022-09-03T15:04:15.048Z,22.66
2022-09-03T15:07:03.301Z,22.66
2022-09-03T15:10:01.032Z,22.70
2022-09-03T15:12:42.315Z,22.68
2022-09-03T15:15:22.745Z,22.64
2022-09-03T15:18:09.711Z,22.63
2022-09-03T15:20:47.011Z,22.63
2022-09-03T15:23:52.708Z,22.62
2022-09-03T15:26:39.996Z,22.60
2022-09-03T15:29:16.208Z,22.58
2022-09-03T15:32:17.267Z,22.56
2022-09-03T15:35:04.387Z,22.53
2022-09-03T15:37:39.215Z,22.49
2022-09-03T15:40:23.990Z,22.46
2022-09-03T15:42:58.936Z,22.44
2022-09-03T15:45:41.610Z,22.40
2022-09-03T15:48:31.527Z,22.34
2022-09-03T15:51:13.765Z,22.29
2022-09-03T15:53:53.360Z,22.27
2022-09-03T15:56:32.564Z,22.25
2022-09-03T15:59:03.285Z,22.22
2022-09-03T16:01:56.718Z,22.18
2022-09-03T16:04:52.889Z,22.13
2022-09-03T16:07:34.594Z,22.09
2022-09-03T16:10:25.391Z,22.02
2022-09-03T16:13:00.163Z,21.97
2022-09-03T16:15:34.322Z,21.92
2022-09-03T16:18:16.903Z,21.89
2022-09-03T16:21:01.341Z,21.84
2022-09-03T16:23:55.541Z,21.79
2022-09-03T16:27:06.675Z,21.76
2022-09-03T16:29:38.667Z,21.70
2022-09-03T16:32:17.483Z,21.63
2022-09-03T16:34:58.691Z,21.57
2022-09-03T16:37:45.344Z,21.50
2022-09-03T16:40:39.109Z,21.43
2022-09-03T16:43:45.194Z,21.34
2022-09-03T16:46:51.354Z,21.26
2022-09-03T16:49:27.191Z,21.17
2022-09-03T16:52:05.103Z,21.10
2022-09-03T16:54:56.025Z,21.00
2022-09-03T16:57:47.498Z,20.77
2022-09-03T17:00:20.371Z,20.73
2022-09-03T17:03:01.043Z,20.57
2022-09-03T17:05:49.239Z,20.41
2022-09-03T17:08:26.360Z,20.23
2022-09-03T17:11:12.657Z,19.95
2022-09-03T17:14:05.194Z,19.89
2022-09-03T17:16:58.745Z,19.61
2022-09-03T17:19:51.838Z,19.50
2022-09-03T17:22:44.224Z,19.28
2022-09-03T17:25:35.962Z,19.10
2022-09-03T17:28:24.808Z,18.91
2022-09-03T17:31:21.788Z,18.72
2022-09-03T17:34:02.914Z,18.54
2022-09-03T17:36:35.793Z,18.37
2022-09-03T17:39:34.351Z,18.21
2022-09-03T17:42:21.897Z,17.95
2022-09-03T17:45:01.477Z,17.86
2022-09-03T17:47:51.246Z,17.71
2022-09-03T17:50:28.083Z,17.49
2022-09-03T17:53:15.347Z,17.41
2022-09-03T17:56:07.481Z,17.25
2022-09-03T17:58:43.992Z,17.11
2022-09-03T18:01:13.342Z,16.97
2022-09-03T18:04:05.358Z,16.84
2022-09-03T18:06:48.760Z,16.72
2022-09-03T18:09:16.848Z,16.61
2022-09-03T18:12:07.808Z,16.52
2022-09-03T18:14:45.529Z,16.40
2022-09-03T18:17:37.633Z,16.29
2022-09-03T18:20:28.595Z,16.19
2022-09-03T18:23:21.292Z,16.09
2022-09-03T18:26:15.630Z,15.96
2022-09-03T18:29:14.299Z,15.85
2022-09-03T18:32:02.726Z,15.74
2022-09-03T18:34:52.774Z,15.63
2022-09-03T18:37:45.123Z,15.56
2022-09-03T18:40:42.067Z,15.48
2022-09-03T18:44:01.491Z,15.37
2022-09-03T18:48:02.177Z,15.28
2022-09-03T18:50:36.633Z,15.16
2022-09-03T18:53:50.759Z,15.05
2022-09-03T18:56:54.370Z,14.93
2022-09-03T19:00:18.089Z,14.83
2022-09-03T19:03:38.960Z,14.76
2022-09-03T19:06:42.352Z,14.67
2022-09-03T19:10:08.123Z,14.56
2022-09-03T19:13:02.808Z,14.47
2022-09-03T19:15:56.232Z,14.40
2022-09-03T19:18:46.225Z,14.31
2022-09-03T19:21:55.452Z,14.23
2022-09-03T19:24:49.173Z,14.15
2022-09-03T19:28:17.263Z,14.07
2022-09-03T19:31:29.253Z,13.97
2022-09-03T19:34:28.541Z,13.90
2022-09-03T19:37:22.053Z,13.83
2022-09-03T19:40:19.511Z,13.76
2022-09-03T19:43:36.789Z,13.68
2022-09-03T19:46:37.512Z,13.59
2022-09-03T19:49:35.775Z,13.51
2022-09-03T19:52:41.829Z,13.45
2022-09-03T19:55:34.956Z,13.29
2022-09-03T19:58:42.053Z,13.32
2022-09-03T20:01:29.802Z,13.29
2022-09-03T20:04:22.807Z,13.25
2022-09-03T20:07:10.010Z,13.22
2022-09-03T20:10:01.458Z,13.19
2022-09-03T20:12:35.653Z,13.16
2022-09-03T20:15:08.791Z,13.11
2022-09-03T20:17:52.247Z,13.04
2022-09-03T20:20:29.190Z,12.96
2022-09-03T20:23:03.130Z,12.92
2022-09-03T20:25:54.881Z,12.87
2022-09-03T20:28:34.106Z,12.83
2022-09-03T20:31:07.893Z,12.78
2022-09-03T20:33:55.442Z,12.73
2022-09-03T20:36:35.897Z,12.67
2022-09-03T20:39:16.378Z,12.61
2022-09-03T20:42:22.537Z,12.57
2022-09-03T20:44:57.561Z,12.52
2022-09-03T20:47:57.319Z,12.47
2022-09-03T20:50:57.506Z,12.42
2022-09-03T20:53:50.878Z,12.37
2022-09-03T20:56:36.247Z,12.33
2022-09-03T20:59:36.782Z,12.28
2022-09-03T21:02:33.826Z,12.23
2022-09-03T21:05:24.303Z,12.20
2022-09-03T21:08:07.265Z,12.15
2022-09-03T21:10:58.045Z,12.13
2022-09-03T21:13:51.306Z,12.10
2022-09-03T21:16:46.359Z,12.07
2022-09-03T21:19:53.134Z,12.04
2022-09-03T21:22:55.456Z,12.01
2022-09-03T21:25:48.274Z,11.98
2022-09-03T21:28:25.116Z,11.94
2022-09-03T21:31:02.782Z,11.87
2022-09-03T21:33:48.960Z,11.84
2022-09-03T21:36:32.911Z,11.81
2022-09-03T21:39:16.569Z,11.69
2022-09-03T21:41:53.811Z,11.76
2022-09-03T21:44:48.027Z,11.74
2022-09-03T21:47:18.930Z,11.73
2022-09-03T21:50:13.085Z,11.70
2022-09-03T21:53:09.717Z,11.67
2022-09-03T21:55:47.090Z,11.65
2022-09-03T21:58:51.998Z,11.62
2022-09-03T22:01:32.533Z,11.59
2022-09-03T22:04:08.012Z,11.58
2022-09-03T22:06:48.017Z,11.57
2022-09-03T22:09:34.879Z,11.56
2022-09-03T22:12:14.959Z,11.56
2022-09-03T22:14:48.137Z,11.54
2022-09-03T22:17:44.239Z,11.54
2022-09-03T22:20:14.969Z,11.54
2022-09-03T22:22:56.644Z,11.55
2022-09-03T22:25:40.744Z,11.55
2022-09-03T22:28:28.932Z,11.55
2022-09-03T22:31:16.214Z,11.39
2022-09-03T22:33:54.998Z,11.50
2022-09-03T22:36:33.376Z,11.48
2022-09-03T22:39:16.598Z,11.45
2022-09-03T22:42:00.975Z,11.41
2022-09-03T22:44:55.456Z,11.37
2022-09-03T22:48:04.859Z,11.33
2022-09-03T22:50:49.872Z,11.30
2022-09-03T22:53:55.394Z,11.27
2022-09-03T22:56:24.017Z,11.23
2022-09-03T22:59:17.001Z,11.20
2022-09-03T23:02:15.673Z,11.14
2022-09-03T23:05:02.531Z,11.10
2022-09-03T23:07:49.793Z,11.07
2022-09-03T23:10:25.793Z,11.03
2022-09-03T23:13:20.102Z,11.02
2022-09-03T23:16:02.580Z,10.91
2022-09-03T23:18:34.163Z,10.96
2022-09-03T23:21:22.349Z,10.94
2022-09-03T23:24:06.394Z,10.91
2022-09-03T23:26:49.474Z,10.86
2022-09-03T23:29:20.853Z,10.83
2022-09-03T23:31:48.715Z,10.80
2022-09-03T23:34:17.005Z,10.77
2022-09-03T23:40:26.358Z,10.69
2022-09-03T23:42:57.523Z,10.65
2022-09-03T23:45:43.499Z,10.62
2022-09-03T23:48:34.180Z,10.59
2022-09-03T23:51:33.686Z,10.57
2022-09-03T23:54:26.019Z,10.56
2022-09-03T23:57:28.131Z,10.53
